Time;durP1;ratioP1;P1;durP2;ratioP2;P2;SDS_P1;SDS_P2;PMS_P1;PMS_P2;Temp;Humidity;BMP_temperature;BMP_pressure;BME280_temperature;BME280_humidity;BME280_pressure;Samples;Min_cycle;Max_cycle;Signal;HPM_P1;HPM_P2
2021/06/17 00:00:10;;;;;;;7.18;6.57;;;18.70;99.90;;;19.62;69.08;97664.06;5264636;28;20195;-60
2021/06/17 00:02:45;;;;;;;7.28;6.68;;;18.70;99.90;;;19.59;69.58;97659.69;5264142;28;20203;-60
2021/06/17 00:05:19;;;;;;;8.73;7.88;;;18.60;99.90;;;19.54;70.75;97663.94;5257582;28;20214;-60
2021/06/17 00:07:53;;;;;;;7.55;6.85;;;18.70;99.90;;;19.56;69.91;97664.81;5270489;28;20726;-60
2021/06/17 00:10:30;;;;;;;7.28;6.78;;;18.70;99.90;;;19.57;69.72;97670.88;5268512;28;20196;-60
2021/06/17 00:13:08;;;;;;;7.38;6.78;;;18.70;99.90;;;19.58;69.64;97662.25;5269697;28;20193;-60
2021/06/17 00:15:42;;;;;;;7.88;7.18;;;18.70;99.90;;;19.57;69.56;97655.31;5269918;28;20215;-60
2021/06/17 00:18:16;;;;;;;7.95;7.38;;;18.70;99.90;;;19.58;69.82;97657.06;5270835;28;20188;-60
2021/06/17 00:20:49;;;;;;;7.10;6.50;;;18.60;99.90;;;19.47;69.79;97654.28;5270287;28;20200;-60
2021/06/17 00:23:23;;;;;;;6.85;6.40;;;18.60;99.90;;;19.45;69.52;97655.09;5269836;28;20198;-60
2021/06/17 00:25:56;;;;;;;7.50;6.85;;;18.50;99.90;;;19.42;69.58;97649.84;5270183;28;20220;-60
2021/06/17 00:28:31;;;;;;;7.55;6.88;;;18.50;99.90;;;19.42;69.47;97660.22;5269698;28;20710;-60
2021/06/17 00:31:04;;;;;;;7.82;7.07;;;18.50;99.90;;;19.36;69.23;97655.78;5270303;28;20679;-60
2021/06/17 00:33:37;;;;;;;7.13;6.53;;;18.40;99.90;;;19.31;69.70;97652.22;5264162;28;20656;-60
2021/06/17 00:36:10;;;;;;;7.07;6.38;;;18.30;99.90;;;19.19;70.64;97646.81;5268763;28;20222;-60
2021/06/17 00:38:44;;;;;;;7.63;6.90;;;18.30;99.90;;;19.12;70.52;97645.84;5268991;28;20194;-60
2021/06/17 00:41:17;;;;;;;7.75;7.10;;;18.20;99.90;;;19.12;70.07;97645.84;5269870;28;20211;-60
2021/06/17 00:43:51;;;;;;;7.43;6.80;;;18.20;99.90;;;19.12;70.64;97644.13;5268819;28;20208;-60
2021/06/17 00:46:25;;;;;;;6.93;6.43;;;18.20;99.90;;;19.13;70.35;97651.03;5269638;28;20222;-60
2021/06/17 00:48:58;;;;;;;8.10;7.40;;;18.20;99.90;;;19.06;70.42;97641.41;5269690;28;20215;-60
2021/06/17 00:51:31;;;;;;;7.30;6.70;;;18.20;99.90;;;19.09;69.84;97645.78;5270169;28;20196;-60
2021/06/17 00:54:05;;;;;;;7.63;7.00;;;18.20;99.90;;;19.04;70.12;97643.09;5268001;28;20192;-60
2021/06/17 00:56:38;;;;;;;8.00;7.28;;;18.20;99.90;;;19.01;70.14;97642.16;5269414;28;20222;-60
2021/06/17 00:59:13;;;;;;;7.80;7.15;;;18.10;99.90;;;19.01;70.05;97639.56;5269231;28;20192;-60
2021/06/17 01:01:46;;;;;;;7.90;7.22;;;18.10;99.90;;;19.01;70.54;97642.16;5262805;28;20187;-60
2021/06/17 01:04:19;;;;;;;8.02;7.32;;;18.10;99.90;;;19.01;71.15;97639.56;5268662;28;21760;-60
2021/06/17 01:06:53;;;;;;;8.00;7.40;;;18.20;99.90;;;19.01;71.14;97636.97;5269591;28;20196;-60
2021/06/17 01:09:46;;;;;;;8.32;7.72;;;18.20;99.90;;;18.99;70.97;97641.25;5267408;28;20585;-60
2021/06/17 01:12:30;;;;;;;8.48;7.78;;;18.10;99.90;;;18.97;71.02;97629.97;5268523;28;20199;-60
2021/06/17 01:15:08;;;;;;;8.13;7.47;;;18.10;99.90;;;18.92;71.32;97629.03;5269480;28;20310;-60
2021/06/17 01:18:00;;;;;;;8.23;7.43;;;18.10;99.90;;;18.82;70.75;97627.94;5268387;28;20537;-60
2021/06/17 01:20:40;;;;;;;8.20;7.50;;;17.90;99.90;;;18.71;70.88;97619.91;5268141;28;20198;-60
2021/06/17 01:23:49;;;;;;;8.05;7.35;;;17.80;99.90;;;18.60;71.54;97614.53;5268513;28;20196;-60
2021/06/17 01:26:34;;;;;;;8.55;7.75;;;17.80;99.90;;;18.66;72.43;97621.53;5268489;28;20216;-60
2021/06/17 01:29:16;;;;;;;8.32;7.72;;;17.80;99.90;;;18.63;71.98;97617.19;5268667;28;20264;-60
2021/06/17 01:31:51;;;;;;;8.18;7.40;;;17.80;99.90;;;18.51;71.29;97608.25;5261336;28;20299;-60
2021/06/17 01:34:25;;;;;;;7.78;7.18;;;17.70;99.90;;;18.43;71.37;97608.97;5267846;28;20217;-60
2021/06/17 01:37:03;;;;;;;7.40;6.90;;;17.60;99.90;;;18.48;71.70;97603.00;5269440;28;20196;-60
2021/06/17 01:39:39;;;;;;;8.20;7.32;;;17.60;99.90;;;18.48;72.64;97606.47;5266061;28;20265;-60
2021/06/17 01:42:13;;;;;;;8.13;7.50;;;17.60;99.90;;;18.42;72.39;97603.75;5269183;28;20195;-60
2021/06/17 01:44:48;;;;;;;8.30;7.70;;;17.60;99.90;;;18.41;72.18;97599.44;5267032;28;20219;-60
2021/06/17 01:47:22;;;;;;;8.23;7.63;;;17.60;99.90;;;18.42;72.14;97594.25;5269048;28;20192;-60
2021/06/17 01:49:56;;;;;;;7.75;7.15;;;17.60;99.90;;;18.41;72.12;97591.66;5266837;28;20640;-60
2021/06/17 01:52:32;;;;;;;8.30;7.60;;;17.50;99.90;;;18.40;72.14;97595.09;5268261;28;20205;-60
2021/06/17 01:55:08;;;;;;;8.05;7.43;;;17.50;99.90;;;18.38;72.31;97582.13;5268628;28;20215;-60
2021/06/17 01:57:43;;;;;;;9.05;8.25;;;17.50;99.90;;;18.34;72.87;97584.59;5267987;28;20192;-60
2021/06/17 02:00:18;;;;;;;8.90;8.20;;;17.50;99.90;;;18.34;72.82;97585.50;5260838;28;20184;-60
2021/06/17 02:02:53;;;;;;;8.55;7.75;;;17.50;99.90;;;18.32;73.83;97592.34;5267303;28;20662;-60
2021/06/17 02:05:26;;;;;;;8.38;7.68;;;17.50;99.90;;;18.32;73.56;97591.47;5268716;28;20218;-60
2021/06/17 02:08:00;;;;;;;8.60;7.97;;;17.40;99.90;;;18.27;73.01;97588.75;5266584;28;20199;-60
2021/06/17 02:10:35;;;;;;;8.32;7.53;;;17.40;99.90;;;18.22;72.75;97580.00;5262521;28;20194;-60
2021/06/17 02:13:13;;;;;;;7.85;7.18;;;17.30;99.90;;;18.13;72.73;97579.81;5265914;28;20698;-60
2021/06/17 02:15:49;;;;;;;8.20;7.50;;;17.20;99.90;;;18.07;72.76;97579.69;5268077;28;20211;-60
2021/06/17 02:18:26;;;;;;;8.93;8.20;;;17.10;99.90;;;18.06;73.88;97577.94;5267953;28;20195;-60
2021/06/17 02:20:59;;;;;;;8.48;7.78;;;17.20;99.90;;;18.00;74.13;97573.50;5267676;28;20202;-60
2021/06/17 02:23:34;;;;;;;8.48;7.72;;;17.10;99.90;;;18.00;74.03;97582.13;5267371;28;20188;-60
2021/06/17 02:26:08;;;;;;;7.90;7.30;;;17.10;99.90;;;17.94;73.87;97575.91;5267784;28;20211;-60
2021/06/17 02:28:47;;;;;;;7.75;7.15;;;17.10;99.90;;;17.90;73.31;97587.91;5267458;28;20212;-60
2021/06/17 02:31:29;;;;;;;8.30;7.60;;;17.00;99.90;;;17.89;73.90;97581.00;5268150;28;20209;-60
2021/06/17 02:34:02;;;;;;;7.45;6.95;;;17.00;99.90;;;17.88;74.05;97578.38;5267149;28;20188;-60
2021/06/17 02:36:37;;;;;;;7.47;6.88;;;16.90;99.90;;;17.85;73.97;97578.28;5267667;28;20695;-60
2021/06/17 02:39:13;;;;;;;8.15;7.45;;;16.90;99.90;;;17.82;73.85;97584.25;5268212;28;20286;-60
2021/06/17 02:41:59;;;;;;;8.07;7.43;;;17.00;99.90;;;17.82;73.42;97586.84;5267268;28;20210;-60
2021/06/17 02:44:33;;;;;;;8.00;7.35;;;16.90;99.90;;;17.83;73.54;97591.19;5266270;28;20204;-60
2021/06/17 02:47:07;;;;;;;7.60;7.00;;;16.90;99.90;;;17.79;73.13;97599.69;5267838;28;20188;-60
2021/06/17 02:49:42;;;;;;;8.35;7.65;;;16.80;99.90;;;17.76;73.55;97592.72;5266692;28;20733;-60
2021/06/17 02:52:15;;;;;;;8.30;7.50;;;16.80;99.90;;;17.70;73.44;97600.31;5267647;28;20655;-60
2021/06/17 02:54:49;;;;;;;8.43;7.70;;;16.70;99.90;;;17.68;73.95;97599.41;5266266;28;20306;-60
2021/06/17 02:57:35;;;;;;;8.52;7.72;;;16.60;99.90;;;17.62;74.26;97601.84;5267426;28;20671;-60
2021/06/17 03:00:11;;;;;;;8.55;7.78;;;16.60;99.90;;;17.59;74.58;97608.66;5266789;28;20202;-60
2021/06/17 03:02:59;;;;;;;8.90;8.05;;;16.60;99.90;;;17.59;74.70;97612.09;5259667;28;20192;-60
2021/06/17 03:05:37;;;;;;;7.63;6.97;;;16.60;99.90;;;17.55;74.47;97608.56;5265463;28;20211;-60
2021/06/17 03:08:27;;;;;;;8.50;7.78;;;16.60;99.90;;;17.47;75.08;97602.31;5267142;28;20199;-60
2021/06/17 03:11:05;;;;;;;8.40;7.70;;;16.50;99.90;;;17.43;74.92;97610.84;5264131;28;20717;-60
2021/06/17 03:13:44;;;;;;;8.30;7.60;;;16.50;99.90;;;17.43;75.60;97612.56;5265692;28;20199;-60
2021/06/17 03:16:23;;;;;;;8.05;7.45;;;16.60;99.90;;;17.46;75.29;97605.75;5267163;28;20216;-60
2021/06/17 03:19:00;;;;;;;8.38;7.63;;;16.60;99.90;;;17.37;75.13;97613.28;5266117;28;20195;-60
2021/06/17 03:21:38;;;;;;;7.70;7.10;;;16.50;99.90;;;17.41;74.20;97606.47;5258776;28;20196;-60
2021/06/17 03:24:13;;;;;;;8.15;7.60;;;16.40;99.90;;;17.37;74.90;97608.09;5262077;28;20222;-60
2021/06/17 03:26:49;;;;;;;7.60;6.97;;;16.40;99.90;;;17.33;74.50;97607.13;5266535;28;20207;-60
2021/06/17 03:29:27;;;;;;;8.32;7.60;;;16.40;99.90;;;17.27;74.85;97609.56;5266246;28;20698;-60
2021/06/17 03:32:02;;;;;;;8.23;7.60;;;16.30;99.90;;;17.19;75.56;97610.19;5267077;28;20195;-58
2021/06/17 03:34:39;;;;;;;8.63;7.82;;;16.30;99.90;;;17.24;75.72;97608.59;5261907;28;20206;-60
2021/06/17 03:37:15;;;;;;;7.95;7.35;;;16.30;99.90;;;17.20;74.98;97615.41;5266906;28;20692;-60
2021/06/17 03:39:51;;;;;;;8.13;7.53;;;16.30;99.90;;;17.14;74.99;97607.50;5266062;28;20558;-60
2021/06/17 03:42:25;;;;;;;7.97;7.35;;;16.20;99.90;;;17.11;75.38;97605.69;5264928;28;20192;-60
2021/06/17 03:44:59;;;;;;;8.02;7.38;;;16.20;99.90;;;17.04;75.54;97608.06;5260490;28;20577;-60
2021/06/17 03:47:32;;;;;;;7.85;7.32;;;16.20;99.90;;;17.03;75.24;97611.50;5262499;28;20196;-60
2021/06/17 03:50:08;;;;;;;8.15;7.55;;;16.20;99.90;;;17.09;75.82;97615.09;5266760;28;20215;-60
2021/06/17 03:52:45;;;;;;;9.18;8.38;;;16.30;99.90;;;17.11;76.07;97621.19;5260981;28;20200;-60
2021/06/17 03:55:19;;;;;;;9.10;8.40;;;16.30;99.90;;;17.12;76.00;97624.66;5266703;28;20215;-60
2021/06/17 03:57:57;;;;;;;8.90;8.10;;;16.30;99.90;;;17.04;75.62;97621.84;5264422;28;20218;-60
2021/06/17 04:00:31;;;;;;;9.52;8.82;;;16.20;99.90;;;16.97;75.81;97629.38;5266298;28;20195;-60
2021/06/17 04:03:08;;;;;;;8.98;8.25;;;16.10;99.90;;;16.88;76.62;97625.72;5264258;28;20191;-60
2021/06/17 04:05:42;;;;;;;9.23;8.50;;;16.10;99.90;;;16.89;76.67;97624.88;5260751;28;20602;-60
2021/06/17 04:08:16;;;;;;;9.35;8.63;;;16.10;99.90;;;16.88;76.41;97630.88;5259043;28;20568;-60
2021/06/17 04:10:50;;;;;;;9.00;8.20;;;16.10;99.90;;;16.97;77.08;97629.38;5266478;28;20223;-60
2021/06/17 04:13:27;;;;;;;9.48;8.68;;;16.20;99.90;;;16.97;76.75;97631.94;5265063;28;20228;-60
2021/06/17 04:16:01;;;;;;;9.60;8.80;;;16.20;99.90;;;17.08;77.59;97628.88;5262206;28;20729;-60
2021/06/17 04:18:36;;;;;;;10.45;9.55;;;16.40;99.90;;;17.20;78.07;97645.53;5260872;28;20192;-60
2021/06/17 04:21:13;;;;;;;9.68;8.95;;;16.50;99.90;;;17.30;77.28;97656.13;5265124;28;21138;-64
2021/06/17 04:23:52;;;;;;;9.05;8.35;;;16.60;99.90;;;17.33;76.61;97650.19;5265972;28;20202;-64
2021/06/17 04:26:28;;;;;;;9.23;8.52;;;16.60;99.90;;;17.39;76.71;97660.69;5258638;28;20222;-64
2021/06/17 04:29:01;;;;;;;9.05;8.35;;;16.70;99.90;;;17.44;76.45;97661.69;5266628;28;20206;-64
2021/06/17 04:31:34;;;;;;;9.18;8.38;;;16.80;99.90;;;17.56;76.82;97659.41;5265741;28;20230;-64
2021/06/17 04:34:08;;;;;;;9.70;8.70;;;16.80;99.90;;;17.61;75.23;97667.31;5257978;28;20204;-64
2021/06/17 04:36:43;;;;;;;9.18;8.38;;;16.90;99.90;;;17.71;74.93;97661.56;5266155;28;20219;-64
2021/06/17 04:39:17;;;;;;;9.63;8.70;;;17.00;99.90;;;17.82;75.01;97661.84;5265569;28;20200;-64
2021/06/17 04:41:51;;;;;;;8.52;7.93;;;17.10;99.90;;;18.07;74.57;97667.63;5265715;28;20225;-65
2021/06/17 04:44:24;;;;;;;9.50;8.57;;;17.20;99.90;;;18.49;73.36;97670.34;5263939;28;20602;-65
2021/06/17 04:46:59;;;;;;;9.40;8.52;;;17.60;99.90;;;19.18;70.05;97665.81;5261933;28;20670;-64
2021/06/17 04:49:35;;;;;;;8.93;8.13;;;18.20;99.90;;;19.96;66.99;97673.34;5264964;28;20200;-65
2021/06/17 04:52:14;;;;;;;7.85;7.15;;;18.80;99.90;;;20.57;65.04;97669.97;5265437;28;20195;-64
2021/06/17 04:54:47;;;;;;;8.07;7.38;;;19.30;99.90;;;21.29;61.60;97669.22;5268739;28;20234;-64
2021/06/17 04:57:21;;;;;;;7.30;6.72;;;19.80;99.90;;;21.93;59.42;97669.03;5265815;28;20203;-65
2021/06/17 04:59:54;;;;;;;8.63;7.72;;;20.30;99.90;;;22.52;58.11;97669.50;5268720;28;20282;-64
2021/06/17 05:02:27;;;;;;;7.60;7.03;;;20.90;99.90;;;23.00;55.72;97670.69;5269238;28;20241;-65
2021/06/17 05:05:00;;;;;;;7.60;6.93;;;21.10;99.90;;;22.96;54.93;97671.56;5267839;28;20241;-65
2021/06/17 05:10:47;;;;;;;8.00;7.40;;;21.30;99.90;;;23.52;54.13;97668.28;5269355;28;20210;-70
2021/06/17 05:10:48;;;;;;;7.60;6.80;;;21.50;99.90;;;24.02;52.72;97671.00;5264265;28;20597;-65
2021/06/17 05:13:23;;;;;;;7.28;6.65;;;21.80;99.50;;;24.34;51.64;97677.97;5267766;28;20196;-65
2021/06/17 05:15:58;;;;;;;7.07;6.57;;;22.10;99.40;;;24.71;50.20;97670.97;5269320;28;20226;-65
2021/06/17 05:18:31;;;;;;;8.43;6.93;;;22.50;98.10;;;24.95;50.20;97670.06;5268445;28;20192;-64
2021/06/17 05:21:05;;;;;;;8.23;6.40;;;22.70;98.10;;;25.23;49.42;97666.50;5269790;28;20228;-65
2021/06/17 05:23:41;;;;;;;6.82;6.32;;;23.10;97.00;;;25.51;48.53;97657.63;5265168;28;20660;-65
2021/06/17 05:26:14;;;;;;;6.70;6.10;;;23.40;96.80;;;25.60;47.66;97657.56;5269264;28;20223;-65
2021/06/17 05:28:47;;;;;;;6.50;5.90;;;23.30;96.30;;;25.69;47.44;97661.88;5257885;28;20206;-64
2021/06/17 05:31:23;;;;;;;8.05;7.25;;;23.40;95.90;;;26.01;46.60;97660.81;5267941;28;20705;-64
2021/06/17 05:33:56;;;;;;;6.47;5.97;;;23.70;95.50;;;26.23;46.75;97653.66;5265379;28;20223;-65
2021/06/17 05:36:29;;;;;;;6.85;6.35;;;23.80;95.40;;;26.18;46.60;97661.59;5267676;28;20712;-65
2021/06/17 05:39:04;;;;;;;6.65;6.05;;;23.90;95.10;;;26.55;45.17;97652.53;5269096;28;20213;-65
2021/06/17 05:41:37;;;;;;;6.15;5.65;;;24.20;94.30;;;26.50;46.16;97658.69;5268124;28;20187;-65
2021/06/17 05:44:11;;;;;;;6.57;5.65;;;24.20;95.00;;;26.65;44.87;97657.66;5261386;28;20199;-65
2021/06/17 05:46:44;;;;;;;6.55;5.93;;;24.30;94.20;;;26.82;45.37;97654.88;5269078;28;20215;-65
2021/06/17 05:49:22;;;;;;;5.63;5.15;;;24.30;94.30;;;27.21;43.98;97657.06;5268334;28;20204;-65
2021/06/17 05:51:55;;;;;;;6.47;5.88;;;24.70;93.60;;;27.18;43.94;97665.84;5269423;28;20781;-65
2021/06/17 05:54:30;;;;;;;6.22;5.68;;;24.70;93.50;;;27.51;43.19;97666.31;5267270;28;20195;-65
2021/06/17 05:57:03;;;;;;;6.13;5.63;;;24.90;92.70;;;27.48;42.98;97669.84;5269075;28;20585;-65
2021/06/17 05:59:37;;;;;;;6.10;5.60;;;25.10;92.50;;;27.69;42.53;97676.56;5268264;28;20191;-65
2021/06/17 06:02:10;;;;;;;6.05;5.55;;;25.20;92.20;;;28.21;41.62;97681.03;5266311;28;20192;-65
2021/06/17 06:04:44;;;;;;;6.53;6.00;;;25.50;91.70;;;28.27;42.11;97674.81;5266649;28;20248;-61
2021/06/17 06:07:17;;;;;;;6.30;5.70;;;25.60;91.70;;;28.51;41.43;97670.94;5263588;28;20195;-61
2021/06/17 06:09:51;;;;;;;5.97;5.38;;;25.80;91.60;;;28.67;41.26;97675.06;5266803;28;20677;-61
2021/06/17 06:12:25;;;;;;;5.93;5.38;;;26.10;91.50;;;29.36;40.61;97667.56;5266474;28;20225;-61
2021/06/17 06:14:58;;;;;;;5.35;4.95;;;26.60;90.70;;;29.82;39.14;97661.34;5265320;28;20691;-61
2021/06/17 06:17:31;;;;;;;6.35;5.63;;;26.70;90.40;;;29.97;38.56;97668.88;5267374;28;20194;-62
2021/06/17 06:20:07;;;;;;;5.45;4.95;;;27.00;90.20;;;30.21;37.47;97674.44;5266828;28;20199;-62
2021/06/17 06:22:41;;;;;;;7.88;5.80;;;27.10;88.30;;;30.70;37.61;97666.16;5267277;28;20205;-62
2021/06/17 06:25:15;;;;;;;5.70;5.18;;;27.60;88.90;;;30.96;36.45;97668.16;5267315;28;20217;-62
2021/06/17 06:27:48;;;;;;;5.50;5.10;;;27.60;88.10;;;31.33;36.66;97668.88;5267866;28;20209;-62
2021/06/17 06:30:21;;;;;;;5.65;5.18;;;28.00;87.80;;;31.84;35.39;97677.03;5267340;28;20198;-62
2021/06/17 06:32:54;;;;;;;5.57;5.18;;;28.40;85.50;;;31.88;35.55;97672.53;5265578;28;20209;-61
2021/06/17 06:35:28;;;;;;;5.50;5.10;;;28.60;85.20;;;31.78;35.24;97679.88;5267140;28;20212;-62
2021/06/17 06:38:02;;;;;;;5.05;4.65;;;28.70;84.00;;;32.18;34.02;97672.47;5260535;28;20196;-62
2021/06/17 06:40:37;;;;;;;5.65;5.15;;;28.90;82.30;;;32.37;34.13;97667.47;5267651;28;20500;-62
2021/06/17 06:43:13;;;;;;;5.63;5.13;;;29.10;82.60;;;32.61;32.60;97660.47;5265764;28;20217;-62
2021/06/17 06:45:47;;;;;;;5.25;4.70;;;29.40;80.60;;;32.60;33.58;97662.28;5265537;28;20226;-62
2021/06/17 06:48:20;;;;;;;5.45;4.95;;;29.40;81.00;;;32.62;33.48;97667.50;5265205;28;20187;-62
2021/06/17 06:50:53;;;;;;;5.50;4.65;;;29.70;81.40;;;33.29;32.12;97661.59;5265354;28;20691;-62
2021/06/17 06:53:27;;;;;;;5.43;4.30;;;29.90;79.00;;;33.67;31.36;97673.41;5266819;28;20198;-62
2021/06/17 06:56:01;;;;;;;5.03;4.55;;;30.50;78.30;;;34.02;31.00;97666.69;5265676;28;20229;-62
2021/06/17 06:58:34;;;;;;;4.70;4.13;;;30.90;76.80;;;34.78;29.90;97677.75;5267189;28;20191;-61
2021/06/17 07:01:07;;;;;;;5.03;4.30;;;31.20;74.50;;;34.99;28.88;97674.16;5267641;28;20561;-61
2021/06/17 07:03:42;;;;;;;4.53;4.22;;;31.40;74.50;;;35.11;28.26;97674.56;5263121;28;20196;-62
2021/06/17 07:06:15;;;;;;;5.00;4.60;;;31.50;71.20;;;35.21;28.47;97667.91;5261124;28;20576;-62
2021/06/17 07:08:48;;;;;;;4.60;4.20;;;31.80;72.30;;;35.29;28.54;97663.13;5267201;28;20195;-62
2021/06/17 07:11:22;;;;;;;4.63;4.13;;;32.10;71.30;;;35.15;28.66;97660.22;5267008;28;20218;-62
2021/06/17 07:13:55;;;;;;;4.90;4.40;;;32.30;71.70;;;35.63;28.07;97665.09;5266167;28;20195;-62
2021/06/17 07:16:28;;;;;;;5.38;4.38;;;32.50;70.70;;;35.81;27.61;97671.34;5266826;28;20211;-62
2021/06/17 07:19:05;;;;;;;4.40;4.10;;;32.50;70.10;;;36.07;27.11;97671.91;5265965;28;20199;-62
2021/06/17 07:21:38;;;;;;;4.68;4.10;;;32.80;68.90;;;36.12;26.84;97672.56;5260190;28;20187;-62
2021/06/17 07:24:11;;;;;;;5.15;4.13;;;33.00;67.60;;;36.20;28.00;97673.06;5264854;28;20192;-62
2021/06/17 07:26:47;;;;;;;4.35;3.78;;;32.90;70.30;;;36.29;27.16;97677.91;5267050;28;20220;-62
2021/06/17 07:29:21;;;;;;;4.57;4.18;;;33.30;68.90;;;36.51;27.70;97666.16;5264995;28;20669;-62
2021/06/17 07:31:54;;;;;;;4.50;4.10;;;33.70;69.20;;;36.72;27.66;97670.44;5267122;28;20676;-62
2021/06/17 07:34:27;;;;;;;5.40;4.07;;;33.60;68.80;;;36.87;27.58;97678.56;5264558;28;20191;-62
2021/06/17 07:37:00;;;;;;;4.30;3.90;;;33.80;69.00;;;36.92;26.81;97673.88;5259206;28;20188;-62
2021/06/17 07:39:33;;;;;;;4.65;4.25;;;33.80;67.50;;;37.26;25.84;97674.75;5265266;28;20195;-63
2021/06/17 07:42:09;;;;;;;4.70;4.30;;;33.70;66.60;;;37.42;25.27;97675.66;5267057;28;20563;-62
2021/06/17 07:44:43;;;;;;;4.45;4.15;;;33.80;65.40;;;37.05;26.72;97677.63;5266107;28;20262;-62
2021/06/17 07:47:16;;;;;;;5.10;4.60;;;33.70;68.10;;;36.41;28.05;97676.44;5266315;28;20199;-62
2021/06/17 07:49:49;;;;;;;4.53;4.03;;;33.40;68.50;;;36.66;28.00;97677.91;5265803;28;20223;-60
2021/06/17 07:52:23;;;;;;;4.38;3.85;;;33.50;69.20;;;36.81;28.00;97678.91;5265991;28;20580;-60
2021/06/17 07:54:56;;;;;;;4.97;4.20;;;33.60;69.20;;;36.69;26.53;97683.91;5266078;28;20682;-60
2021/06/17 07:57:31;;;;;;;4.70;4.13;;;33.50;67.70;;;37.12;27.89;97679.03;5265975;28;20196;-62
2021/06/17 08:00:06;;;;;;;4.18;3.80;;;33.70;69.70;;;37.51;27.06;97679.66;5263207;28;20195;-63
2021/06/17 08:02:39;;;;;;;5.60;4.22;;;33.80;67.90;;;37.65;26.55;97677.94;5265340;28;20195;-62
2021/06/17 08:05:13;;;;;;;5.70;3.88;;;34.30;67.50;;;38.12;26.13;97673.59;5266093;28;20292;-60
2021/06/17 08:07:46;;;;;;;4.15;3.83;;;34.50;68.30;;;38.46;24.49;97677.88;5265049;28;20187;-60
2021/06/17 08:10:20;;;;;;;3.95;3.65;;;34.50;64.90;;;38.60;25.81;97676.16;5266717;28;20586;-61
2021/06/17 08:12:54;;;;;;;4.57;4.18;;;34.70;67.00;;;38.72;24.57;97675.44;5265520;28;20211;-61
2021/06/17 08:15:28;;;;;;;4.32;4.00;;;35.10;64.00;;;38.57;24.82;97674.53;5264632;28;20214;-61
2021/06/17 08:18:01;;;;;;;5.20;4.15;;;35.00;65.40;;;39.07;24.77;97664.44;5265159;28;20191;-61
2021/06/17 08:20:34;;;;;;;4.25;3.85;;;35.30;65.20;;;39.03;24.47;97662.91;5261674;28;20191;-61
2021/06/17 08:23:08;;;;;;;4.32;3.67;;;35.30;63.90;;;38.15;25.35;97670.75;5263334;28;20204;-61
2021/06/17 08:25:41;;;;;;;4.15;3.80;;;35.30;64.80;;;37.68;26.21;97657.38;5265252;28;20239;-61
2021/06/17 08:28:15;;;;;;;4.32;3.92;;;35.10;64.90;;;37.92;26.58;97660.47;5269083;28;20273;-61
2021/06/17 08:30:48;;;;;;;3.95;3.60;;;35.60;64.70;;;37.83;26.24;97653.84;5268409;28;20201;-61
2021/06/17 08:33:21;;;;;;;4.07;3.78;;;35.80;63.60;;;37.83;26.91;97644.03;5268656;28;20250;-60
2021/06/17 08:35:56;;;;;;;4.50;4.10;;;35.90;64.10;;;37.55;26.76;97642.06;5267750;28;20587;-61
2021/06/17 08:38:29;;;;;;;4.22;3.83;;;35.60;63.90;;;37.49;27.39;97633.53;5269257;28;20210;-61
2021/06/17 08:41:04;;;;;;;4.35;3.95;;;35.60;64.30;;;37.30;26.89;97639.00;5269828;28;20189;-61
2021/06/17 08:43:55;;;;;;;4.90;3.92;;;35.30;64.10;;;37.10;27.40;97643.59;5269506;28;20195;-61
2021/06/17 08:46:28;;;;;;;4.50;4.00;;;35.30;63.50;;;37.14;28.29;97638.94;5269588;28;20237;-61
2021/06/17 08:49:02;;;;;;;4.45;4.10;;;35.60;64.80;;;37.29;27.33;97637.25;5269532;28;20195;-61
2021/06/17 08:51:39;;;;;;;4.40;4.00;;;35.70;63.20;;;37.08;27.65;97637.47;5267047;28;20202;-61
2021/06/17 08:54:13;;;;;;;4.40;4.10;;;35.70;63.30;;;36.96;26.94;97638.09;5268178;28;20720;-61
2021/06/17 08:56:47;;;;;;;4.50;4.07;;;35.50;63.40;;;36.76;27.15;97637.34;5269832;28;20540;-61
2021/06/17 08:59:32;;;;;;;4.53;4.13;;;35.30;63.00;;;36.79;28.36;97639.00;5269628;28;20569;-60
2021/06/17 09:02:06;;;;;;;4.25;3.95;;;35.30;64.70;;;36.82;27.97;97637.97;5269792;28;20191;-61
2021/06/17 09:04:39;;;;;;;4.55;4.07;;;35.50;63.80;;;36.83;27.44;97631.69;5269973;28;20191;-61
2021/06/17 09:07:14;;;;;;;4.20;3.90;;;35.50;62.50;;;36.70;27.52;97624.34;5269472;28;20188;-61
2021/06/17 09:09:48;;;;;;;4.25;3.83;;;35.40;62.80;;;36.76;25.75;97629.34;5269400;28;20290;-61
2021/06/17 09:12:22;;;;;;;3.30;3.00;;;35.30;59.50;;;36.62;26.92;97631.88;5269885;28;20214;-62
2021/06/17 09:15:11;;;;;;;3.97;3.47;;;35.30;62.40;;;36.39;25.66;97635.69;5269315;28;20219;-61
2021/06/17 09:17:44;;;;;;;3.55;3.28;;;35.30;58.20;;;36.36;26.91;97637.66;5269777;28;20195;-61
2021/06/17 09:20:17;;;;;;;4.18;3.97;;;35.20;60.80;;;36.35;26.27;97644.78;5268223;28;20274;-61
2021/06/17 09:22:50;;;;;;;3.85;3.55;;;35.20;59.00;;;36.21;26.12;97639.28;5268697;28;20192;-61
2021/06/17 09:25:24;;;;;;;4.50;3.65;;;35.00;59.30;;;35.96;26.07;97647.59;5268565;28;20599;-60
2021/06/17 09:28:01;;;;;;;3.53;3.17;;;35.00;58.50;;;35.92;25.43;97635.38;5268665;28;20195;-61
2021/06/17 09:30:35;;;;;;;3.80;3.50;;;35.00;57.30;;;36.05;25.28;97628.53;5269580;28;20199;-60
2021/06/17 09:33:11;;;;;;;3.65;3.42;;;35.10;57.90;;;35.93;25.17;97622.00;5268403;28;20258;-60
2021/06/17 09:35:54;;;;;;;3.83;3.03;;;35.00;57.50;;;36.02;25.71;97631.31;5265119;28;20213;-61
2021/06/17 09:38:27;;;;;;;4.18;3.10;;;35.00;57.40;;;36.16;25.27;97628.00;5262465;28;20192;-62
2021/06/17 09:41:00;;;;;;;3.00;2.80;;;35.20;57.80;;;36.01;23.02;97635.78;5268995;28;20202;-61
2021/06/17 09:43:35;;;;;;;3.72;3.15;;;35.00;54.30;;;36.12;24.03;97626.44;5268615;28;20201;-61
2021/06/17 09:46:11;;;;;;;3.17;2.95;;;35.20;55.90;;;36.06;22.71;97616.97;5268566;28;20222;-61
2021/06/17 09:48:49;;;;;;;3.10;2.88;;;35.10;54.10;;;36.11;23.90;97620.25;5268811;28;20191;-61
2021/06/17 09:51:35;;;;;;;3.53;3.25;;;35.20;55.20;;;35.66;25.70;97626.88;5260695;28;20191;-61
2021/06/17 09:54:20;;;;;;;3.53;3.33;;;35.00;57.10;;;35.88;24.95;97624.00;5265492;28;20220;-61
2021/06/17 09:56:58;;;;;;;3.53;3.22;;;35.00;56.00;;;36.01;24.87;97633.13;5265662;28;20202;-61
2021/06/17 09:59:42;;;;;;;4.05;3.70;;;35.00;56.20;;;35.68;24.79;97632.94;5260454;28;20195;-60
2021/06/17 10:02:22;;;;;;;4.25;3.40;;;34.70;56.60;;;35.49;28.20;97626.78;5263470;28;20197;-61
2021/06/17 10:05:13;;;;;;;3.70;3.40;;;34.70;59.90;;;35.61;25.72;97636.84;5264408;28;20222;-61
2021/06/17 10:07:50;;;;;;;3.53;3.25;;;34.80;56.30;;;35.62;26.39;97642.09;5265024;28;20199;-61
2021/06/17 10:10:26;;;;;;;3.70;3.40;;;34.60;58.70;;;35.73;25.58;97638.91;5264403;28;20282;-62
2021/06/17 10:13:00;;;;;;;3.47;3.25;;;34.70;56.90;;;35.72;25.56;97639.88;5261049;28;20210;-62
2021/06/17 10:15:33;;;;;;;3.65;3.30;;;34.80;57.00;;;35.34;24.83;97639.84;5257158;28;20260;-62
2021/06/17 10:18:08;;;;;;;3.60;3.30;;;34.40;56.30;;;35.38;25.79;97643.22;5266007;28;20188;-62
2021/06/17 10:20:41;;;;;;;3.58;3.25;;;34.50;57.30;;;35.50;25.77;97649.75;5265661;28;20187;-62
2021/06/17 10:23:15;;;;;;;3.65;3.35;;;34.60;57.40;;;35.41;26.64;97649.25;5265774;28;20542;-62
2021/06/17 10:25:49;;;;;;;3.80;3.50;;;34.50;58.20;;;35.69;26.48;97650.66;5263812;28;20215;-62
2021/06/17 10:28:43;;;;;;;4.47;3.50;;;34.60;58.10;;;35.83;26.80;97657.97;5264934;28;20301;-62
2021/06/17 10:31:50;;;;;;;3.45;3.15;;;34.60;59.10;;;35.85;26.62;97656.09;5265613;28;20184;-62
2021/06/17 10:34:46;;;;;;;3.65;3.35;;;34.60;58.80;;;35.71;26.83;97654.09;5264091;28;20212;-62
2021/06/17 10:37:25;;;;;;;3.70;3.40;;;34.50;58.80;;;36.05;25.78;97647.16;5267521;28;20201;-62
2021/06/17 10:40:05;;;;;;;3.38;3.17;;;34.80;57.40;;;36.24;23.69;97652.44;5267721;28;20697;-62
2021/06/17 10:42:40;;;;;;;4.00;3.78;;;34.90;56.00;;;36.18;24.09;97658.94;5267232;28;20195;-62
2021/06/17 10:45:17;;;;;;;3.72;3.42;;;34.70;55.70;;;36.01;24.56;97654.41;5267210;28;20578;-62
2021/06/17 10:47:58;;;;;;;3.90;3.67;;;34.70;56.50;;;35.94;25.13;97652.13;5268174;28;20685;-62
2021/06/17 10:50:48;;;;;;;4.25;3.63;;;34.70;56.70;;;35.80;24.87;97645.69;5267004;28;20199;-62
2021/06/17 10:53:45;;;;;;;3.97;3.38;;;34.40;56.50;;;35.71;25.85;97646.09;5266835;28;20304;-62
2021/06/17 10:56:21;;;;;;;3.45;3.25;;;34.40;58.50;;;35.69;25.96;97642.69;5267086;28;20219;-62